Startline

Fernie Half Marathon

Fernie, BC - October 2, 2016

EventPlaceGun Time Race #NameDivision Place/GenderPlace/Division Chip Time
Half 1/130 1:19:08 120 RIGDEN, Mathew M-U30 1/59 1/7 1:19:06
Half 2/130 1:20:33 164 CAIN, Ryan M3049 2/59 1/36 1:20:31
Half 3/130 1:24:58 116 PINCHAK, Bryce M3049 3/59 2/36 1:24:56
Half 4/130 1:28:17 31 DUCHAN, Jeremy M3049 4/59 3/36 1:28:16
Half 5/130 1:29:24 57 HAYWARD, Marc M50+ 5/59 1/16 1:29:23
Half 6/130 1:30:09 85 MANCELL, Bryce M-U30 6/59 2/7 1:30:02
Half 7/130 1:30:09 126 RUSSELL, Jim M3049 7/59 4/36 1:30:02
Half 8/130 1:30:31 100 MORIN, Marc M3049 8/59 5/36 1:30:28
Half 9/130 1:32:29 103 MURPHY, Kyle M3049 9/59 6/36 1:32:26
Half 10/130 1:33:55 24 D'ALOISIO, Derek M3049 10/59 7/36 1:33:53
Half 11/130 1:34:30 60 HIGGINS, Bob M50+ 11/59 2/16 1:34:28
Half 12/130 1:35:21 5 BIRD, John M3049 12/59 8/36 1:35:09
Half 13/130 1:36:55 72 KARMALI, Rahim M3049 13/59 9/36 1:36:54
Half 14/130 1:38:01 138 STICKEL, Chad M3049 14/59 10/36 1:37:59
Half 15/130 1:38:36 4 BIRD, Claire F3049 1/71 1/42 1:38:25
Half 16/130 1:38:59 13 CARRUTHERS, Nick M-U30 15/59 3/7 1:38:47
Half 17/130 1:39:44 12 BULLOCK, Noel M3049 16/59 11/36 1:39:34
Half 18/130 1:39:44 76 KUIJPER, Alex M3049 17/59 12/36 1:39:32
Half 19/130 1:39:44 140 STOCK, Josh M3049 18/59 13/36 1:39:33
Half 20/130 1:41:14 10 BUCHOLTZ, Andrew M3049 19/59 14/36 1:41:12
Half 21/130 1:41:26 108 NUTLEY, Mick M3049 20/59 15/36 1:41:22
Half 22/130 1:41:40 93 MILFORD, Richard M50+ 21/59 3/16 1:41:31
Half 23/130 1:44:23 62 HORNSETH, Ron M3049 22/59 16/36 1:44:20
Half 24/130 1:44:51 101 MRAK, Laura F3049 2/71 2/42 1:44:42
Half 25/130 1:45:26 118 RAMADASS, Harshan M3049 23/59 17/36 1:45:18
Half 26/130 1:45:27 36 ERICKSON, Chantelle F3049 3/71 3/42 1:45:18
Half 27/130 1:46:19 18 CHOW, Lawrence M3049 24/59 18/36 1:45:59
Half 28/130 1:46:21 43 FRUEHAN, Elizabeth F-U30 4/71 1/10 1:46:18
Half 29/130 1:46:29 86 MARSHALL, Emily F-U30 5/71 2/10 1:46:17
Half 30/130 1:47:03 69 JONES, Sherra F50+ 6/71 1/19 1:46:59
Half 31/130 1:47:14 15 CASE, Deena F3049 7/71 4/42 1:47:06
Half 32/130 1:47:16 63 HUTCHINSON, Avie M50+ 25/59 4/16 1:46:59
Half 33/130 1:47:21 166 HILL, Mita F-U30 8/71 3/10 1:47:18
Half 34/130 1:47:24 143 SUTHERLAND, Jeff M3049 26/59 19/36 1:47:08
Half 35/130 1:47:39 33 DYCK, Greg M50+ 27/59 5/16 1:47:29
Half 36/130 1:48:04 102 MUELLER, Ryan M3049 28/59 20/36 1:47:59
Half 37/130 1:48:27 95 MILLER REYNOLDS, Sandra F3049 9/71 5/42 1:48:16
Half 38/130 1:48:45 81 LIDDY, Jacob M3049 29/59 21/36 1:48:27
Half 39/130 1:48:46 88 MCINTYRE, Hanna F-U30 10/71 4/10 1:48:39
Half 40/130 1:48:49 42 FRASER, Phil M50+ 30/59 6/16 1:48:45
Half 41/130 1:49:04 16 CAVICCHI, Trevor M3049 31/59 22/36 1:49:02
Half 42/130 1:49:58 53 GUPPY, Brent M50+ 32/59 7/16 1:49:52
Half 43/130 1:50:13 26 DEANE, Sue F3049 11/71 6/42 1:50:03
Half 44/130 1:50:13 165 DAVIDSON, Kim M50+ 33/59 8/16 1:49:56
Half 45/130 1:50:54 145 TOOMBS, Lori F50+ 12/71 2/19 1:50:50
Half 46/130 1:51:13 73 KARMALI, Victoria F-U30 13/71 5/10 1:51:11
Half 47/130 1:52:02 19 CHOW, Paul M3049 34/59 23/36 1:51:55
Half 48/130 1:52:27 51 GORDON, Tony M50+ 35/59 9/16 1:52:16
Half 49/130 1:52:28 25 DAVIS, Heather F3049 14/71 7/42 1:52:17
Half 50/130 1:53:02 74 KEITH, Erin F3049 15/71 8/42 1:52:44
Half 51/130 1:53:31 38 FAHSELT, Travis M3049 36/59 24/36 1:53:24
Half 52/130 1:53:46 52 GUNN, Jolene F3049 16/71 9/42 1:53:39
Half 53/130 1:54:18 154 KLASSEN, Bob M50+ 37/59 10/16 1:54:09
Half 54/130 1:54:43 59 HICKS, Brian M3049 38/59 25/36 1:54:40
Half 55/130 1:54:55 98 MOLAND, Mark M3049 39/59 26/36 1:54:51
Half 56/130 1:55:35 83 MACINTYRE, Jeanie F50+ 17/71 3/19 1:55:30
Half 57/130 1:55:57 107 NOSEN, Will M3049 40/59 27/36 1:55:46
Half 58/130 1:56:50 30 DRISCOLL, Jonathon M3049 41/59 28/36 1:56:39
Half 59/130 1:56:53 22 CUTHBERT, Mona F50+ 18/71 4/19 1:56:41
Half 60/130 1:58:40 128 SAMS, Graeme M3049 42/59 29/36 1:58:30
Half 61/130 1:58:56 104 MURRAY, Carmen F3049 19/71 10/42 1:58:54
Half 62/130 1:58:56 127 RUSSELL, Katherine F3049 20/71 11/42 1:58:42
Half 63/130 1:59:33 1 ADAMO, Jocelyn F3049 21/71 12/42 1:59:20
Half 64/130 2:00:29 121 ROBERTSON, Jamie F3049 22/71 13/42 2:00:14
Half 65/130 2:00:29 47 GENTILE, Jackie F3049 23/71 14/42 2:00:21
Half 66/130 2:00:29 28 DEWIT, Brenda F3049 24/71 15/42 2:00:25
Half 67/130 2:00:31 2 ARTHUR, Nicole F3049 25/71 16/42 2:00:17
Half 68/130 2:00:31 45 GAUTHIER, Shauna F3049 26/71 17/42 2:00:17
Half 69/130 2:00:39 7 BOLEN, Brandon M-U30 43/59 4/7 2:00:34
Half 70/130 2:00:58 157 CLOW, Alex M-U30 44/59 5/7 2:00:49
Half 71/130 2:01:15 46 GELLNER, Julie F3049 27/71 18/42 2:01:13
Half 72/130 2:02:27 21 CURTIS, Brit F3049 28/71 19/42 2:02:23
Half 73/130 2:02:49 17 CEDERBERG, Michelle F3049 29/71 20/42 2:02:39
Half 74/130 2:03:21 141 STOCK, Morgan F3049 30/71 21/42 2:03:07
Half 75/130 2:03:37 6 BLAIS, Lisa F3049 31/71 22/42 2:03:28
Half 76/130 2:03:58 117 PRITCHARD, Kristina F3049 32/71 23/42 2:03:50
Half 77/130 2:04:06 90 MIERAU, Tammy F3049 33/71 24/42 2:03:56
Half 78/130 2:04:30 158 POIRIER-CORNELL, Andrea F3049 34/71 25/42 2:04:28
Half 79/130 2:04:39 68 JONES, Jeff M50+ 45/59 11/16 2:04:26
Half 80/130 2:06:08 54 GURBA, Leslie F3049 35/71 26/42 2:05:50
Half 81/130 2:06:17 55 HAMAR, Katie F-U30 36/71 6/10 2:06:13
Half 82/130 2:07:41 110 OVIATT, Christine F3049 37/71 27/42 2:07:24
Half 83/130 2:08:24 161 MACDONALD, Adam M3049 46/59 30/36 2:08:04
Half 84/130 2:08:26 115 PINCHAK, Alayna F3049 38/71 28/42 2:08:19
Half 85/130 2:08:57 50 GOERTZEN, Randi F-U30 39/71 7/10 2:08:50
Half 86/130 2:09:42 71 JOUBERT, Annalize F3049 40/71 29/42 2:09:28
Half 87/130 2:09:49 152 ZOETEMAN, Jana F50+ 41/71 5/19 2:09:35
Half 88/130 2:10:18 160 COLLI, Cesar M3049 47/59 31/36 2:07:00
Half 89/130 2:10:30 94 MILLER, Jack M50+ 48/59 12/16 2:10:13
Half 90/130 2:10:31 8 BRADLEY, Jay M50+ 49/59 13/16 2:10:19
Half 91/130 2:10:32 64 HUTCHINSON, Laurie F50+ 42/71 6/19 2:10:16
Half 92/130 2:10:58 162 CROMEY, Lincoln M-U30 50/59 6/7 2:10:47
Half 93/130 2:10:59 163 CROMEY, Brad M3049 51/59 32/36 2:10:46
Half 94/130 2:11:09 133 SHELDON, Valerie M3049 52/59 33/36 2:10:57
Half 95/130 2:11:18 136 SKOPYK, Joshua M-U30 53/59 7/7 2:11:08
Half 96/130 2:12:55 77 KUNTZ, April F3049 43/71 30/42 2:12:39
Half 97/130 2:12:57 56 HANSEN, Stephanie F3049 44/71 31/42 2:12:41
Half 98/130 2:13:05 113 PETERSON, Eunice F3049 45/71 32/42 2:12:48
Half 99/130 2:13:08 114 PETERSON, Troy M3049 54/59 34/36 2:12:51
Half 100/130 2:13:26 122 ROCH, Vaclav M3049 55/59 35/36 2:13:12
Half 101/130 2:13:45 49 GOERTZ, James M50+ 56/59 14/16 2:13:39
Half 102/130 2:13:45 11 BUFFAM, Jenny F3049 46/71 33/42 2:13:39
Half 103/130 2:14:02 82 LOHR, Christine F50+ 47/71 7/19 2:13:44
Half 104/130 2:15:03 32 DUDLEY, Ashley F3049 48/71 34/42 2:14:58
Half 105/130 2:15:17 159 MARINEAU, Lynn F50+ 49/71 8/19 2:15:01
Half 106/130 2:15:30 144 TEMPLIN, Marjorie F50+ 50/71 9/19 2:15:19
Half 107/130 2:15:45 131 SAUVE, Emily F3049 51/71 35/42 2:15:33
Half 108/130 2:17:50 70 JONES-HUSCH, Kathy F3049 52/71 36/42 2:17:35
Half 109/130 2:18:02 123 ROGERS, Lynn F50+ 53/71 10/19 2:17:46
Half 110/130 2:19:15 149 WILSON, Pat M50+ 57/59 15/16 2:18:56
Half 111/130 2:19:15 139 STICKEL, Jen F3049 54/71 37/42 2:18:55
Half 112/130 2:19:31 146 TRACEY, Brittney F-U30 55/71 8/10 2:19:20
Half 113/130 2:19:53 142 STORY, Kathleen F3049 56/71 38/42 2:19:40
Half 114/130 2:20:02 34 EGGLESTON, Laurie F50+ 57/71 11/19 2:19:55
Half 115/130 2:20:23 155 MUSIL, Michele F50+ 58/71 12/19 2:20:14
Half 116/130 2:20:49 58 HENDRIE, Alice F-U30 59/71 9/10 2:20:31
Half 117/130 2:20:57 27 DEMPSEY, David M50+ 58/59 16/16 2:20:38
Half 118/130 2:21:45 66 JOHNSON, Gwen F3049 60/71 39/42 2:21:33
Half 119/130 2:23:44 78 KWASNITZA, Jolene F3049 61/71 40/42 2:23:31
Half 120/130 2:24:09 97 MOFFATT, Maggie F50+ 62/71 13/19 2:24:03
Half 121/130 2:24:09 112 PETERSON, Audrey F50+ 63/71 14/19 2:24:02
Half 122/130 2:27:33 91 MIGNEAULT, Baylie F-U30 64/71 10/10 2:27:26
Half 123/130 2:27:33 92 MIGNEAULT, Trevor M3049 59/59 36/36 2:27:26
Half 124/130 2:29:57 29 DOMIN, Terri F3049 65/71 41/42 2:29:45
Half 125/130 2:30:01 106 NORRIS, Joan F50+ 66/71 15/19 2:29:46
Half 126/130 2:33:30 23 DAHOOD, Kathy F50+ 67/71 16/19 2:33:24
Half 127/130 2:34:16 41 FRASER, Lynn F50+ 68/71 17/19 2:34:03
Half 128/130 2:40:56 84 MACKIN, Jennifer F3049 69/71 42/42 2:40:40
Half 129/130 2:41:04 80 LAING, Robin F50+ 70/71 18/19 2:40:48
Half 130/130 2:43:07 9 BROOK, Neroli F50+ 71/71 19/19 2:42:56
Half 79 LAING, Jim M50+